TimeMDT,TemperatureF,Dew PointF,Humidity,Sea Level PressureIn,VisibilityMPH,Wind Direction,Wind SpeedMPH,Gust SpeedMPH,PrecipitationIn,Events,Conditions,WindDirDegrees,DateUTC
12:15 AM,35.6,21.2,56,30.19,10.0,ESE,3.5,-,N/A,,Overcast,110,2012-10-07 06:15:00
12:35 AM,33.8,21.2,60,30.19,10.0,SE,3.5,-,N/A,,Overcast,130,2012-10-07 06:35:00
12:55 AM,35.6,21.2,56,30.20,10.0,SE,3.5,-,N/A,,Overcast,140,2012-10-07 06:55:00
1:15 AM,32.0,19.4,60,30.20,10.0,SE,3.5,-,N/A,,Overcast,140,2012-10-07 07:15:00
1:35 AM,33.8,19.4,56,30.20,10.0,ESE,3.5,-,N/A,,Overcast,110,2012-10-07 07:35:00
1:55 AM,33.8,17.6,52,30.21,10.0,SE,3.5,-,N/A,,Overcast,140,2012-10-07 07:55:00
2:15 AM,32.0,17.6,55,30.21,10.0,SE,4.6,-,N/A,,Overcast,130,2012-10-07 08:15:00
2:35 AM,32.0,17.6,55,30.21,10.0,SE,3.5,-,N/A,,Overcast,130,2012-10-07 08:35:00
2:55 AM,32.0,19.4,60,30.21,10.0,Calm,Calm,-,N/A,,Overcast,0,2012-10-07 08:55:00
3:15 AM,32.0,19.4,60,30.21,10.0,Calm,Calm,-,N/A,,Overcast,0,2012-10-07 09:15:00
3:35 AM,32.0,19.4,60,30.21,10.0,ESE,3.5,-,N/A,,Mostly Cloudy,120,2012-10-07 09:35:00
3:55 AM,32.0,17.6,55,30.21,10.0,ESE,4.6,-,N/A,,Mostly Cloudy,120,2012-10-07 09:55:00
4:15 AM,32.0,17.6,55,30.21,10.0,SE,3.5,-,N/A,,Overcast,130,2012-10-07 10:15:00
4:35 AM,32.0,15.8,51,30.20,10.0,ESE,4.6,-,N/A,,Overcast,120,2012-10-07 10:35:00
4:55 AM,32.0,15.8,51,30.20,10.0,ESE,4.6,-,N/A,,Overcast,120,2012-10-07 10:55:00
5:15 AM,32.0,15.8,51,30.21,10.0,ESE,5.8,-,N/A,,Overcast,120,2012-10-07 11:15:00
5:35 AM,32.0,15.8,51,30.21,10.0,ESE,4.6,-,N/A,,Overcast,120,2012-10-07 11:35:00
5:55 AM,32.0,17.6,55,30.21,10.0,SE,3.5,-,N/A,,Overcast,130,2012-10-07 11:55:00
6:15 AM,32.0,17.6,55,30.21,10.0,SE,3.5,-,N/A,,Overcast,140,2012-10-07 12:15:00
6:35 AM,32.0,17.6,55,30.21,10.0,SE,4.6,-,N/A,,Overcast,130,2012-10-07 12:35:00
6:55 AM,30.2,15.8,55,30.21,10.0,SE,5.8,-,N/A,,Overcast,130,2012-10-07 12:55:00
7:15 AM,33.8,15.8,48,30.21,10.0,ESE,9.2,-,N/A,,Overcast,120,2012-10-07 13:15:00
7:35 AM,33.8,15.8,48,30.22,10.0,SE,8.1,-,N/A,,Mostly Cloudy,130,2012-10-07 13:35:00
7:55 AM,30.2,15.8,55,30.23,10.0,SSE,4.6,-,N/A,,Partly Cloudy,160,2012-10-07 13:55:00
8:15 AM,30.2,17.6,60,30.24,10.0,Calm,Calm,-,N/A,,Clear,0,2012-10-07 14:15:00
8:35 AM,32.0,17.6,55,30.24,10.0,SE,3.5,-,N/A,,Clear,140,2012-10-07 14:35:00
8:55 AM,32.0,17.6,55,30.24,10.0,ESE,4.6,-,N/A,,Clear,120,2012-10-07 14:55:00
9:15 AM,35.6,17.6,48,30.24,10.0,SE,4.6,-,N/A,,Clear,140,2012-10-07 15:15:00
9:35 AM,37.4,17.6,45,30.25,10.0,SSE,4.6,-,N/A,,Clear,160,2012-10-07 15:35:00
9:55 AM,41.0,17.6,39,30.25,10.0,SSE,3.5,-,N/A,,Clear,150,2012-10-07 15:55:00
10:15 AM,44.6,19.4,37,30.25,10.0,SSE,3.5,-,N/A,,Clear,150,2012-10-07 16:15:00
10:35 AM,46.4,17.6,32,30.25,10.0,South,5.8,-,N/A,,Clear,180,2012-10-07 16:35:00
10:55 AM,48.2,19.4,32,30.25,10.0,Calm,Calm,-,N/A,,Clear,0,2012-10-07 16:55:00
11:15 AM,50.0,17.6,28,30.24,10.0,East,5.8,-,N/A,,Clear,100,2012-10-07 17:15:00
11:35 AM,50.0,17.6,28,30.23,10.0,SE,5.8,-,N/A,,Clear,140,2012-10-07 17:35:00
11:55 AM,53.6,17.6,24,30.23,10.0,SE,4.6,-,N/A,,Clear,130,2012-10-07 17:55:00
12:15 PM,55.4,15.8,21,30.22,10.0,SE,4.6,-,N/A,,Clear,130,2012-10-07 18:15:00
12:35 PM,55.4,15.8,21,30.21,10.0,South,5.8,-,N/A,,Clear,190,2012-10-07 18:35:00
12:55 PM,57.2,17.6,21,30.20,9.0,SW,4.6,-,N/A,,Clear,220,2012-10-07 18:55:00
1:15 PM,57.2,15.8,20,30.19,8.0,Calm,Calm,-,N/A,,Clear,0,2012-10-07 19:15:00
1:35 PM,59.0,14.0,17,30.18,9.0,South,4.6,-,N/A,,Clear,170,2012-10-07 19:35:00
1:55 PM,59.0,14.0,17,30.17,10.0,Calm,Calm,-,N/A,,Clear,0,2012-10-07 19:55:00
2:15 PM,60.8,14.0,16,30.16,8.0,South,4.6,-,N/A,,Clear,190,2012-10-07 20:15:00
2:35 PM,62.6,14.0,15,30.15,7.0,East,3.5,-,N/A,,Clear,100,2012-10-07 20:35:00
2:55 PM,62.6,12.2,14,30.14,10.0,SSE,3.5,-,N/A,,Clear,160,2012-10-07 20:55:00
3:15 PM,62.6,14.0,15,30.13,5.0,ENE,4.6,-,N/A,,Clear,60,2012-10-07 21:15:00
3:35 PM,62.6,14.0,15,30.12,10.0,WNW,5.8,-,N/A,,Clear,300,2012-10-07 21:35:00
3:55 PM,62.6,12.2,14,30.11,10.0,Calm,Calm,-,N/A,,Clear,0,2012-10-07 21:55:00
4:15 PM,64.4,12.2,13,30.10,10.0,NNW,6.9,-,N/A,,Clear,340,2012-10-07 22:15:00
4:35 PM,64.4,12.2,13,30.10,10.0,Calm,Calm,-,N/A,,Clear,0,2012-10-07 22:35:00
4:55 PM,64.4,14.0,14,30.09,10.0,NE,3.5,-,N/A,,Clear,40,2012-10-07 22:55:00
5:15 PM,64.4,14.0,14,30.08,10.0,North,4.6,-,N/A,,Clear,10,2012-10-07 23:15:00
5:35 PM,62.6,14.0,15,30.08,10.0,North,5.8,-,N/A,,Clear,350,2012-10-07 23:35:00
5:55 PM,62.6,14.0,15,30.07,10.0,NNW,5.8,-,N/A,,Clear,340,2012-10-07 23:55:00
6:15 PM,62.6,15.8,16,30.06,10.0,North,5.8,-,N/A,,Clear,360,2012-10-08 00:15:00
6:35 PM,62.6,15.8,16,30.06,10.0,North,4.6,-,N/A,,Clear,350,2012-10-08 00:35:00
6:55 PM,60.8,17.6,19,30.05,10.0,NNW,3.5,-,N/A,,Clear,340,2012-10-08 00:55:00
7:15 PM,59.0,17.6,20,30.05,10.0,North,3.5,-,N/A,,Clear,350,2012-10-08 01:15:00
7:55 PM,55.4,19.4,25,30.05,10.0,North,3.5,-,N/A,,Clear,350,2012-10-08 01:55:00
8:15 PM,53.6,19.4,26,30.05,10.0,Calm,Calm,-,N/A,,Clear,0,2012-10-08 02:15:00
8:35 PM,50.0,23.0,35,30.05,10.0,Calm,Calm,-,N/A,,Clear,0,2012-10-08 02:35:00
8:55 PM,46.4,24.8,43,30.05,10.0,Calm,Calm,-,N/A,,Clear,0,2012-10-08 02:55:00
9:15 PM,44.6,26.6,49,30.05,10.0,Calm,Calm,-,N/A,,Clear,0,2012-10-08 03:15:00
9:35 PM,44.6,26.6,49,30.05,10.0,Calm,Calm,-,N/A,,Clear,0,2012-10-08 03:35:00
9:55 PM,44.6,24.8,46,30.05,10.0,Calm,Calm,-,N/A,,Partly Cloudy,0,2012-10-08 03:55:00
10:15 PM,41.0,26.6,57,30.05,10.0,East,3.5,-,N/A,,Clear,90,2012-10-08 04:15:00
10:35 PM,41.0,26.6,57,30.05,10.0,Calm,Calm,-,N/A,,Partly Cloudy,0,2012-10-08 04:35:00
10:55 PM,37.4,24.8,60,30.05,10.0,Calm,Calm,-,N/A,,Clear,0,2012-10-08 04:55:00
11:15 PM,37.4,24.8,60,30.05,10.0,Calm,Calm,-,N/A,,Clear,0,2012-10-08 05:15:00
11:35 PM,35.6,24.8,65,30.05,10.0,SE,4.6,-,N/A,,Clear,130,2012-10-08 05:35:00
11:55 PM,35.6,24.8,65,30.05,10.0,SE,3.5,-,N/A,,Clear,130,2012-10-08 05:55:00